createdAt,value
2022-12-10T00:01:14.473Z,100646.06
2022-12-10T00:03:47.753Z,100652.00
2022-12-10T00:06:33.393Z,100654.56
2022-12-10T00:09:13.614Z,100651.16
2022-12-10T00:12:08.012Z,100660.78
2022-12-10T00:14:49.792Z,100661.81
2022-12-10T00:17:29.004Z,100658.34
2022-12-10T00:19:58.944Z,100663.56
2022-12-10T00:22:30.514Z,100670.50
2022-12-10T00:24:59.246Z,100667.97
2022-12-10T00:27:27.992Z,100665.41
2022-12-10T00:29:57.587Z,100673.19
2022-12-10T00:32:26.187Z,100674.91
2022-12-10T00:34:54.939Z,100669.72
2022-12-10T00:37:23.512Z,100678.38
2022-12-10T00:39:53.790Z,100678.28
2022-12-10T00:42:22.441Z,100679.16
2022-12-10T00:44:51.381Z,100679.16
2022-12-10T00:47:20.663Z,100678.38
2022-12-10T00:49:49.548Z,100675.78
2022-12-10T00:52:18.148Z,100673.22
2022-12-10T00:54:47.263Z,100668.84
2022-12-10T00:57:17.372Z,100679.28
2022-12-10T00:59:46.305Z,100681.88
2022-12-10T01:02:15.302Z,100686.22
2022-12-10T01:04:44.078Z,100676.66
2022-12-10T01:07:12.709Z,100673.22
2022-12-10T01:09:41.559Z,100679.25
2022-12-10T01:12:10.331Z,100678.41
2022-12-10T01:14:43.747Z,100668.88
2022-12-10T01:17:12.440Z,100653.31
2022-12-10T01:19:41.077Z,100660.19
2022-12-10T01:22:11.202Z,100655.00
2022-12-10T01:24:40.143Z,100661.00
2022-12-10T01:27:08.851Z,100657.59
2022-12-10T01:29:37.542Z,100661.09
2022-12-10T01:32:07.739Z,100663.69
2022-12-10T01:34:40.914Z,100664.56
2022-12-10T01:37:09.752Z,100671.47
2022-12-10T01:39:38.493Z,100667.16
2022-12-10T01:42:07.587Z,100662.81
2022-12-10T01:45:09.903Z,100672.34
2022-12-10T01:47:40.424Z,100676.59
2022-12-10T01:50:10.847Z,100675.69
2022-12-10T01:52:40.419Z,100674.84
2022-12-10T01:55:32.531Z,100676.56
2022-12-10T01:58:01.358Z,100671.38
2022-12-10T02:00:30.106Z,100677.44
2022-12-10T02:03:07.391Z,100674.84
2022-12-10T02:05:43.624Z,100666.19
2022-12-10T02:08:21.986Z,100665.38
2022-12-10T02:11:02.737Z,100662.81
2022-12-10T02:13:35.858Z,100667.97
2022-12-10T02:16:10.909Z,100672.31
2022-12-10T02:18:49.094Z,100670.63
2022-12-10T02:21:22.166Z,100679.25
2022-12-10T02:23:57.744Z,100681.78
2022-12-10T02:26:34.536Z,100675.56
2022-12-10T02:29:14.127Z,100673.84
2022-12-10T02:31:48.927Z,100670.34
2022-12-10T02:34:20.337Z,100680.72
2022-12-10T02:36:52.668Z,100679.91
2022-12-10T02:39:27.569Z,100682.56
2022-12-10T02:42:03.185Z,100679.91
2022-12-10T02:44:37.882Z,100676.41
2022-12-10T02:47:09.434Z,100677.41
2022-12-10T02:49:43.933Z,100679.97
2022-12-10T02:52:15.682Z,100683.44
2022-12-10T02:54:48.887Z,100675.59
2022-12-10T02:57:36.369Z,100670.38
2022-12-10T03:00:17.485Z,100675.91
2022-12-10T03:03:14.187Z,100669.81
2022-12-10T03:05:49.868Z,100670.59
2022-12-10T03:08:21.461Z,100670.78
2022-12-10T03:10:55.519Z,100675.22
2022-12-10T03:13:30.720Z,100681.38
2022-12-10T03:16:02.267Z,100677.78
2022-12-10T03:18:33.932Z,100673.25
2022-12-10T03:21:06.451Z,100670.16
2022-12-10T03:23:37.797Z,100668.94
2022-12-10T03:26:08.171Z,100680.97
2022-12-10T03:28:40.882Z,100673.09
2022-12-10T03:31:14.168Z,100672.13
2022-12-10T03:33:43.547Z,100681.44
2022-12-10T03:36:13.290Z,100672.22
2022-12-10T03:38:43.271Z,100666.19
2022-12-10T03:41:12.278Z,100664.41
2022-12-10T03:43:52.903Z,100660.91
2022-12-10T03:46:23.770Z,100661.22
2022-12-10T03:48:52.250Z,100662.81
2022-12-10T03:51:21.227Z,100660.28
2022-12-10T03:53:51.635Z,100666.41
2022-12-10T03:56:20.785Z,100662.28
2022-12-10T03:58:49.902Z,100665.69
2022-12-10T04:01:18.872Z,100665.53
2022-12-10T04:03:49.124Z,100656.09
2022-12-10T04:06:20.411Z,100661.16
2022-12-10T04:08:54.201Z,100663.06
2022-12-10T04:11:27.418Z,100663.03
2022-12-10T04:14:13.287Z,100662.28
2022-12-10T04:16:43.353Z,100664.75
2022-12-10T04:19:15.458Z,100666.72
2022-12-10T04:22:03.413Z,100674.25
2022-12-10T04:24:51.591Z,100666.19
2022-12-10T04:27:23.827Z,100667.50
2022-12-10T04:29:53.470Z,100663.19
2022-12-10T04:32:22.904Z,100668.25
2022-12-10T04:34:53.344Z,100662.22
2022-12-10T04:37:23.018Z,100658.84
2022-12-10T04:39:52.746Z,100652.72
2022-12-10T04:42:22.266Z,100654.19
2022-12-10T04:44:51.444Z,100658.47
2022-12-10T04:47:20.494Z,100660.69
2022-12-10T04:49:49.284Z,100645.13
2022-12-10T04:52:19.450Z,100649.75
2022-12-10T04:54:48.185Z,100656.44
2022-12-10T04:57:18.125Z,100653.06
2022-12-10T04:59:47.050Z,100642.81
2022-12-10T05:02:15.690Z,100643.16
2022-12-10T05:04:44.446Z,100647.31
2022-12-10T05:07:13.829Z,100646.13
2022-12-10T05:09:43.978Z,100641.88
2022-12-10T05:12:12.684Z,100644.59
2022-12-10T05:14:41.560Z,100647.22
2022-12-10T05:17:10.331Z,100642.06
2022-12-10T05:19:39.094Z,100639.41
2022-12-10T05:22:39.736Z,100640.03
2022-12-10T05:25:10.751Z,100652.91
2022-12-10T05:27:39.511Z,100658.19
2022-12-10T05:30:10.943Z,100654.00
2022-12-10T05:32:40.779Z,100660.84
2022-12-10T05:35:10.128Z,100660.00
2022-12-10T05:37:39.853Z,100659.25
2022-12-10T05:40:11.926Z,100671.06
2022-12-10T05:42:40.759Z,100668.28
2022-12-10T05:45:10.877Z,100675.69
2022-12-10T05:47:39.592Z,100674.22
2022-12-10T05:50:08.798Z,100671.28
2022-12-10T05:52:37.718Z,100681.41
2022-12-10T05:55:06.781Z,100678.78
2022-12-10T05:57:38.426Z,100673.19
2022-12-10T06:00:08.870Z,100669.31
2022-12-10T06:02:40.929Z,100665.53
2022-12-10T06:05:10.886Z,100677.13
2022-12-10T06:07:39.504Z,100668.56
2022-12-10T06:10:08.851Z,100671.25
2022-12-10T06:12:39.602Z,100664.50
2022-12-10T06:15:09.422Z,100662.16
2022-12-10T06:17:38.585Z,100659.22
2022-12-10T06:20:08.820Z,100658.88
2022-12-10T06:22:37.710Z,100669.25
2022-12-10T06:25:07.592Z,100672.91
2022-12-10T06:27:36.446Z,100672.56
2022-12-10T06:30:07.772Z,100673.81
2022-12-10T06:32:36.664Z,100677.38
2022-12-10T06:35:05.787Z,100679.09
2022-12-10T06:37:35.213Z,100679.53
2022-12-10T06:40:04.059Z,100676.06
2022-12-10T06:42:32.743Z,100677.06
2022-12-10T06:45:01.427Z,100676.72
2022-12-10T06:47:31.664Z,100687.63
2022-12-10T06:50:00.417Z,100685.38
2022-12-10T06:52:29.086Z,100691.16
2022-12-10T06:54:57.904Z,100682.81
2022-12-10T06:57:27.168Z,100676.97
2022-12-10T06:59:55.889Z,100686.06
2022-12-10T07:02:24.784Z,100686.09
2022-12-10T07:04:57.601Z,100688.06
2022-12-10T07:07:26.799Z,100697.53
2022-12-10T07:09:55.516Z,100694.16
2022-12-10T07:12:29.457Z,100698.53
2022-12-10T07:14:58.320Z,100696.97
2022-12-10T07:17:26.980Z,100690.91
2022-12-10T07:19:57.730Z,100696.25
2022-12-10T07:22:26.156Z,100682.16
2022-12-10T07:24:54.935Z,100683.94
2022-12-10T07:27:23.796Z,100687.06
2022-12-10T07:29:53.024Z,100696.97
2022-12-10T07:32:21.648Z,100690.25
2022-12-10T07:34:50.457Z,100687.16
2022-12-10T07:37:20.658Z,100686.34
2022-12-10T07:39:49.448Z,100692.81
2022-12-10T07:42:18.115Z,100686.44
2022-12-10T07:44:49.246Z,100688.75
2022-12-10T07:47:18.328Z,100685.28
2022-12-10T07:49:47.315Z,100691.44
2022-12-10T07:52:16.102Z,100690.50
2022-12-10T07:54:46.445Z,100688.41
2022-12-10T07:57:16.769Z,100692.63
2022-12-10T07:59:45.577Z,100692.34
2022-12-10T08:02:14.205Z,100689.94
2022-12-10T08:04:43.167Z,100683.53
2022-12-10T08:07:13.088Z,100682.81
2022-12-10T08:09:41.787Z,100682.66
2022-12-10T08:12:11.942Z,100681.97
2022-12-10T08:14:40.687Z,100685.66
2022-12-10T08:17:09.386Z,100686.59
2022-12-10T08:19:38.210Z,100684.97
2022-12-10T08:22:06.963Z,100678.91
2022-12-10T08:24:37.307Z,100667.97
2022-12-10T08:27:06.067Z,100673.88
2022-12-10T08:29:36.588Z,100676.44
2022-12-10T08:32:05.648Z,100681.72
2022-12-10T08:34:34.964Z,100680.97
2022-12-10T08:37:07.768Z,100683.13
2022-12-10T08:39:39.604Z,100675.41
2022-12-10T08:42:08.341Z,100682.34
2022-12-10T08:44:38.909Z,100687.59
2022-12-10T08:47:07.724Z,100676.63
2022-12-10T08:49:36.565Z,100686.38
2022-12-10T08:52:05.283Z,100673.53
2022-12-10T08:54:34.149Z,100688.31
2022-12-10T08:57:03.048Z,100685.78
2022-12-10T08:59:31.624Z,100681.53
2022-12-10T09:02:01.977Z,100675.50
2022-12-10T09:04:31.002Z,100673.84
2022-12-10T09:06:59.603Z,100672.13
2022-12-10T09:09:28.188Z,100675.69
2022-12-10T09:11:56.856Z,100673.13
2022-12-10T09:14:42.164Z,100681.00
2022-12-10T09:17:12.568Z,100676.63
2022-12-10T09:19:43.887Z,100676.63
2022-12-10T09:22:12.668Z,100673.19
2022-12-10T09:24:41.286Z,100676.66
2022-12-10T09:27:09.769Z,100675.78
2022-12-10T09:29:38.622Z,100685.31
2022-12-10T09:32:07.463Z,100680.16
2022-12-10T09:34:37.727Z,100677.53
2022-12-10T09:37:06.546Z,100675.81
2022-12-10T09:39:35.313Z,100681.84
2022-12-10T09:42:25.269Z,100679.25
2022-12-10T09:45:03.631Z,100682.75
2022-12-10T09:47:37.964Z,100677.56
2022-12-10T09:50:19.398Z,100667.16
2022-12-10T09:52:50.545Z,100667.13
2022-12-10T09:55:20.385Z,100663.56
2022-12-10T09:57:52.872Z,100674.88
2022-12-10T10:00:26.052Z,100677.41
2022-12-10T10:03:01.287Z,100671.34
2022-12-10T10:05:33.986Z,100673.06
2022-12-10T10:08:06.699Z,100668.72
2022-12-10T10:10:37.031Z,100678.25
2022-12-10T10:13:17.131Z,100671.28
2022-12-10T10:15:50.214Z,100674.69
2022-12-10T10:18:36.449Z,100684.25
2022-12-10T10:21:10.211Z,100666.91
2022-12-10T10:23:38.973Z,100666.88
2022-12-10T10:26:12.097Z,100672.00
2022-12-10T10:28:43.910Z,100669.44
2022-12-10T10:31:20.911Z,100672.88
2022-12-10T10:34:00.150Z,100664.19
2022-12-10T10:36:38.738Z,100664.09
2022-12-10T10:39:29.350Z,100666.63
2022-12-10T10:42:04.751Z,100662.28
2022-12-10T10:44:38.033Z,100656.03
2022-12-10T10:47:32.640Z,100665.44
2022-12-10T10:50:03.711Z,100663.72
2022-12-10T10:52:39.590Z,100663.59
2022-12-10T10:55:32.732Z,100660.06
2022-12-10T10:58:01.701Z,100657.38
2022-12-10T11:00:30.451Z,100650.28
2022-12-10T11:03:00.511Z,100655.31
2022-12-10T11:05:36.359Z,100656.06
2022-12-10T11:08:16.902Z,100652.41
2022-12-10T11:10:51.010Z,100660.75
2022-12-10T11:13:30.399Z,100664.31
2022-12-10T11:16:03.498Z,100662.69
2022-12-10T11:18:37.813Z,100663.63
2022-12-10T11:21:17.990Z,100665.38
2022-12-10T11:23:57.057Z,100657.59
2022-12-10T11:26:53.399Z,100660.00
2022-12-10T11:29:39.853Z,100664.28
2022-12-10T11:32:26.300Z,100653.78
2022-12-10T11:35:10.373Z,100655.44
2022-12-10T11:37:45.454Z,100658.00
2022-12-10T11:40:59.951Z,100653.41
2022-12-10T11:43:43.450Z,100653.22
2022-12-10T11:46:34.056Z,100655.41
2022-12-10T11:49:16.398Z,100647.38
2022-12-10T11:52:29.773Z,100658.19
2022-12-10T11:55:15.535Z,100644.34
2022-12-10T11:58:17.292Z,100649.69
2022-12-10T12:01:06.476Z,100648.03
2022-12-10T12:04:01.582Z,100649.75
2022-12-10T12:07:14.825Z,100654.84
2022-12-10T12:10:05.011Z,100651.22
2022-12-10T12:12:41.732Z,100660.06
2022-12-10T12:15:22.192Z,100650.47
2022-12-10T12:17:58.977Z,100654.59
2022-12-10T12:20:33.052Z,100650.03
2022-12-10T12:23:07.473Z,100645.84
2022-12-10T12:25:43.310Z,100645.81
2022-12-10T12:28:17.133Z,100638.75
2022-12-10T12:30:49.930Z,100641.28
2022-12-10T12:33:30.857Z,100643.22
2022-12-10T12:36:05.339Z,100635.88
2022-12-10T12:38:44.594Z,100644.53
2022-12-10T12:41:17.792Z,100650.69
2022-12-10T12:43:54.299Z,100643.28
2022-12-10T12:46:33.099Z,100643.41
2022-12-10T12:49:06.690Z,100644.59
2022-12-10T12:51:45.249Z,100640.38
2022-12-10T12:54:17.590Z,100637.91
2022-12-10T12:57:16.951Z,100644.38
2022-12-10T13:00:05.287Z,100641.22
2022-12-10T13:03:02.848Z,100644.41
2022-12-10T13:05:34.890Z,100643.34
2022-12-10T13:08:27.894Z,100654.75
2022-12-10T13:11:01.031Z,100652.97
2022-12-10T13:13:39.151Z,100650.09
2022-12-10T13:16:49.408Z,100642.25
2022-12-10T13:19:28.369Z,100647.72
2022-12-10T13:22:13.352Z,100656.41
2022-12-10T13:25:22.585Z,100645.00
2022-12-10T13:28:14.116Z,100640.81
2022-12-10T13:30:43.071Z,100637.53
2022-12-10T13:33:23.712Z,100647.53
2022-12-10T13:36:08.927Z,100648.22
2022-12-10T13:39:27.189Z,100642.22
2022-12-10T13:42:51.691Z,100648.09
2022-12-10T13:45:59.533Z,100653.06
2022-12-10T13:48:55.210Z,100647.00
2022-12-10T13:52:00.690Z,100651.56
2022-12-10T13:55:30.770Z,100670.09
2022-12-10T14:02:15.452Z,100649.38
2022-12-10T14:06:21.410Z,100656.47
2022-12-10T14:13:19.470Z,100667.50
2022-12-10T14:15:59.822Z,100669.81
2022-12-10T14:18:57.212Z,100663.66
2022-12-10T14:21:31.333Z,100678.34
2022-12-10T14:24:13.051Z,100678.69
2022-12-10T14:26:49.511Z,100667.22
2022-12-10T14:29:29.323Z,100672.94
2022-12-10T14:32:05.511Z,100668.22
2022-12-10T14:34:34.323Z,100660.84
2022-12-10T14:37:08.399Z,100668.59
2022-12-10T14:39:44.243Z,100668.63
2022-12-10T14:42:18.450Z,100670.19
2022-12-10T14:44:54.610Z,100673.25
2022-12-10T14:47:23.551Z,100670.84
2022-12-10T14:49:58.211Z,100666.00
2022-12-10T14:52:44.377Z,100669.75
2022-12-10T14:55:53.430Z,100673.84
2022-12-10T14:59:02.670Z,100670.22
2022-12-10T15:13:22.011Z,100673.50
2022-12-10T15:20:11.329Z,100669.13
2022-12-10T15:23:01.212Z,100663.56
2022-12-10T15:25:33.490Z,100676.28
2022-12-10T15:28:05.372Z,100671.69
2022-12-10T15:38:13.631Z,100666.41
2022-12-10T15:44:07.190Z,100659.00
2022-12-10T16:05:37.557Z,100663.38
2022-12-10T16:08:42.113Z,100661.94
2022-12-10T16:11:49.933Z,100661.50
2022-12-10T16:22:10.413Z,100664.25
2022-12-10T16:25:53.892Z,100669.44
2022-12-10T16:29:34.971Z,100665.69
2022-12-10T16:32:56.192Z,100673.38
2022-12-10T16:42:25.052Z,100671.03
2022-12-10T16:45:08.648Z,100667.41
2022-12-10T16:47:54.486Z,100672.56
2022-12-10T16:50:29.852Z,100669.25
2022-12-10T16:53:27.469Z,100663.91
2022-12-10T16:59:24.753Z,100665.53
2022-12-10T17:01:56.725Z,100678.16
2022-12-10T17:07:50.730Z,100672.19
2022-12-10T17:10:58.189Z,100670.41
2022-12-10T17:13:34.432Z,100676.47
2022-12-10T17:18:53.170Z,100673.78
2022-12-10T17:21:38.548Z,100674.72
2022-12-10T17:24:35.031Z,100685.19
2022-12-10T17:27:09.054Z,100683.81
2022-12-10T17:29:57.294Z,100674.81
2022-12-10T17:39:01.872Z,100669.84
2022-12-10T17:46:13.718Z,100673.25
2022-12-10T17:49:00.933Z,100677.97
2022-12-10T17:52:07.938Z,100678.69
2022-12-10T17:59:40.113Z,100686.31
2022-12-10T18:02:59.214Z,100686.22
2022-12-10T18:05:49.460Z,100695.94
2022-12-10T18:09:23.234Z,100694.31
2022-12-10T18:33:54.535Z,100701.63
2022-12-10T18:36:55.233Z,100693.03
2022-12-10T18:39:48.536Z,100704.53
2022-12-10T18:49:22.052Z,100702.41
2022-12-10T18:51:54.016Z,100692.81
2022-12-10T18:54:36.490Z,100699.94
2022-12-10T18:58:04.393Z,100698.31
2022-12-10T19:09:17.078Z,100695.38
2022-12-10T19:47:21.291Z,100708.50
2022-12-10T19:50:51.333Z,100713.00
2022-12-10T19:58:32.491Z,100710.66
2022-12-10T20:11:02.912Z,100716.59
2022-12-10T20:18:34.598Z,100730.66
2022-12-10T20:21:37.050Z,100732.44
2022-12-10T21:04:11.586Z,100743.06
2022-12-10T21:06:45.899Z,100745.06
2022-12-10T21:11:58.387Z,100757.06
2022-12-10T21:18:15.175Z,100745.53
2022-12-10T21:21:40.736Z,100755.88
2022-12-10T21:24:22.265Z,100754.06
2022-12-10T21:26:59.851Z,100736.09
2022-12-10T21:29:39.548Z,100747.91
2022-12-10T21:33:23.035Z,100739.94
2022-12-10T21:36:26.046Z,100744.25
2022-12-10T21:50:22.328Z,100754.06
2022-12-10T21:53:16.845Z,100762.56
2022-12-10T22:11:48.565Z,100770.66
2022-12-10T22:14:17.727Z,100774.25
2022-12-10T22:16:48.982Z,100776.06
2022-12-10T22:19:21.487Z,100760.13
2022-12-10T22:21:51.627Z,100757.09
2022-12-10T22:27:07.667Z,100751.13
2022-12-10T22:29:36.494Z,100758.44
2022-12-10T22:32:44.249Z,100761.34
2022-12-10T22:35:49.165Z,100763.94
2022-12-10T22:38:17.990Z,100754.78
2022-12-10T22:41:01.806Z,100760.88
2022-12-10T22:43:51.688Z,100756.34
2022-12-10T22:46:21.074Z,100746.84
2022-12-10T22:48:49.989Z,100745.94
2022-12-10T22:51:19.127Z,100743.03
2022-12-10T22:53:47.989Z,100747.78
2022-12-10T22:56:38.965Z,100753.25
2022-12-10T22:59:09.646Z,100748.88
2022-12-10T23:10:25.984Z,100752.22
2022-12-10T23:13:46.062Z,100751.56
2022-12-10T23:16:26.634Z,100747.84
2022-12-10T23:18:55.498Z,100740.84
2022-12-10T23:21:32.867Z,100741.09
2022-12-10T23:24:01.925Z,100731.69
2022-12-10T23:26:45.793Z,100742.84
2022-12-10T23:32:03.457Z,100730.13
2022-12-10T23:34:32.140Z,100726.09
2022-12-10T23:40:36.042Z,100733.88
2022-12-10T23:43:07.482Z,100733.97
2022-12-10T23:45:39.646Z,100736.41
2022-12-10T23:48:36.177Z,100730.53
2022-12-10T23:51:08.623Z,100737.31
2022-12-10T23:53:37.542Z,100727.38
2022-12-10T23:56:17.920Z,100734.84
2022-12-10T23:59:13.262Z,100740.38
